Strona główna
METAR-TAF:

METAR-TAF

Lotnisko :

Leeming, Anglia

Szerokość geograficzna: 54-18N, Długość geograficzna: 001-32W, wysokość: 40 m

Aktualna obserwacja pogody

Raport powstał 45 minut temu, godzina 07:20 UTC
Wiatr 4 kt od wschodnio-południowy wschód
Temperatura 5°C
Wilgotność 87%
Ciśnienie 1030 hPa
Widzialność 10 km lub więcej
Brak chmur poniżej 1500 m i brak chmur cumulonimbus

METAR: EGXE 070720Z 12004KT CAVOK 05/03 Q1030 RMK BLU

czas: 09:05 (08:05 UTC)

Prognoza

Raport powstał 18 godziny i 11 minut temu, godzina 13:54 UTC
Prognoza ważna od 06 godzina 15 UTC do 06 godzina 18 UTC
Wiatr 13 kt od zachodnio-południowy zachód
Widzialność 10 km lub więcej
Mało chmury na wysokości 4500 ft

TAF: EGXE 061354Z 0615/0618 25013KT 9999 FEW045

Obserwacja i prognoza pogody dla ponad 4000 lotnisk (raport METAR i TAF).

Dostępne stacje oznaczono żółtymi i czerwonymi punktami na mapie.

Najedź kursorem aby zobaczyć nazwę stacji.

Kliknij aby zobaczyć obserwacje i prognozy pogody.

Aby zmienić mapę: kliknij na zielony przycisk z czarnym krzyżykiem, aby powiększyć; na zielony przycisk z myślnikiem, aby pomniejszyć; na zielone strzałki, aby przejść do map sąsiednich.


METAR-TAF: